Las Vegas (LAS/KLAS)

Information

Location
Las Vegas, NV
Local Time
19:22 / 7:22 pm
GMT Time
02:22 / 2:22 am
Gates
Unassigned
No FAA reported delays
METAR KLAS 280156Z 04019KT 10SM FEW060 SCT120 SCT200 17/01 A2984 RMK AO2 PK WND 34034/0111 WSHFT 0133 SLP094 VIRGA N-E-S T01720006 $
TAF KLAS 280204Z 2802/2824 04010G20KT P6SM VCSH SCT060 BKN100 FM280400 34020G30KT P6SM SCT100 FM282000 36012KT P6SM FEW100
  • No charts available